Terminal Aerodrome Forecast
Issued by NWS

Home | Current Version | Previous Version | Text Only | Print | Product List | Glossary On
Versions: 1 2 3 4 5 6 7 8 9 10 11 12 13
145
FTUS45 KTFX 272323
TAFGTF
TAF
KGTF 272323Z 2800/2824 30011KT P6SM VCSH SCT050 BKN080
     FM280200 22007KT P6SM SCT080
     FM280700 26008KT P6SM SCT040 BKN070 PROB30 2812/2818 -SHRA
      BKN035
     FM281800 34010KT P6SM SCT035 BKN060 PROB30 2818/2822 -SHRA
      BKN035=

USA.gov is the U.S. government's official web portal to all federal, state and local government web resources and services.